createdAt,value
2022-11-08T00:01:13.077Z,80.43
2022-11-08T00:03:40.961Z,71.88
2022-11-08T00:06:27.287Z,70.65
2022-11-08T00:09:18.074Z,71.25
2022-11-08T00:12:22.528Z,70.28
2022-11-08T00:14:49.327Z,74.68
2022-11-08T00:17:17.988Z,74.60
2022-11-08T00:19:45.342Z,74.43
2022-11-08T00:22:12.792Z,73.15
2022-11-08T00:24:39.616Z,62.08
2022-11-08T00:27:09.825Z,66.40
2022-11-08T00:29:37.171Z,65.38
2022-11-08T00:32:05.375Z,65.90
2022-11-08T00:34:35.698Z,63.08
2022-11-08T00:37:09.736Z,72.13
2022-11-08T00:39:36.964Z,71.18
2022-11-08T00:42:04.528Z,75.07
2022-11-08T00:44:31.301Z,70.43
2022-11-08T00:46:58.057Z,65.75
2022-11-08T00:49:24.907Z,68.57
2022-11-08T00:51:53.207Z,67.88
2022-11-08T00:54:21.320Z,60.72
2022-11-08T00:56:49.295Z,64.68
2022-11-08T00:59:18.623Z,63.13
2022-11-08T01:01:47.356Z,59.45
2022-11-08T01:04:17.833Z,60.28
2022-11-08T01:06:45.454Z,55.08
2022-11-08T01:09:13.076Z,54.30
2022-11-08T01:11:45.591Z,55.50
2022-11-08T01:14:14.244Z,55.67
2022-11-08T01:16:41.577Z,58.97
2022-11-08T01:19:11.994Z,57.92
2022-11-08T01:21:38.832Z,60.00
2022-11-08T01:24:06.330Z,57.80
2022-11-08T01:26:42.398Z,60.92
2022-11-08T01:29:11.469Z,61.33
2022-11-08T01:31:38.283Z,57.85
2022-11-08T01:34:05.740Z,58.78
2022-11-08T01:36:32.559Z,65.07
2022-11-08T01:39:02.866Z,59.53
2022-11-08T01:41:30.787Z,60.05
2022-11-08T01:43:59.263Z,64.18
2022-11-08T01:46:46.066Z,67.05
2022-11-08T01:49:19.121Z,57.33
2022-11-08T01:51:54.635Z,60.15
2022-11-08T01:54:30.511Z,62.67
2022-11-08T01:56:59.943Z,58.28
2022-11-08T01:59:29.305Z,62.80
2022-11-08T02:01:58.727Z,60.58
2022-11-08T02:04:26.758Z,57.58
2022-11-08T02:06:55.257Z,61.13
2022-11-08T02:09:22.097Z,60.50
2022-11-08T02:11:49.773Z,61.75
2022-11-08T02:14:18.119Z,55.83
2022-11-08T02:16:45.109Z,55.25
2022-11-08T02:19:28.960Z,49.45
2022-11-08T02:21:58.218Z,56.45
2022-11-08T02:24:25.143Z,58.20
2022-11-08T02:26:55.813Z,58.08
2022-11-08T02:32:02.361Z,59.20
2022-11-08T02:34:47.085Z,57.75
2022-11-08T02:37:19.180Z,56.08
2022-11-08T02:39:47.822Z,57.08
2022-11-08T02:42:16.616Z,59.67
2022-11-08T02:44:43.349Z,53.83
2022-11-08T02:47:10.160Z,60.47
2022-11-08T02:49:37.501Z,58.00
2022-11-08T02:52:06.793Z,57.15
2022-11-08T02:54:33.555Z,62.92
2022-11-08T02:57:00.314Z,60.70
2022-11-08T02:59:27.182Z,57.67
2022-11-08T03:01:54.162Z,57.22
2022-11-08T03:04:29.822Z,54.65
2022-11-08T03:07:02.207Z,50.78
2022-11-08T03:09:29.096Z,53.05
2022-11-08T03:12:02.050Z,57.92
2022-11-08T03:14:36.461Z,56.25
2022-11-08T03:17:04.731Z,55.47
2022-11-08T03:19:31.600Z,54.13
2022-11-08T03:21:58.454Z,57.83
2022-11-08T03:24:25.212Z,56.95
2022-11-08T03:26:51.996Z,58.85
2022-11-08T03:29:21.998Z,57.63
2022-11-08T03:31:48.847Z,63.60
2022-11-08T03:34:26.554Z,54.33
2022-11-08T03:36:54.781Z,49.45
2022-11-08T03:39:21.522Z,52.88
2022-11-08T03:41:50.408Z,52.00
2022-11-08T03:44:20.537Z,52.53
2022-11-08T03:46:56.747Z,50.88
2022-11-08T03:49:23.721Z,47.83
2022-11-08T03:51:55.880Z,49.75
2022-11-08T03:54:22.720Z,47.08
2022-11-08T03:56:52.306Z,51.90
2022-11-08T03:59:21.595Z,49.45
2022-11-08T04:01:55.602Z,50.90
2022-11-08T04:04:22.642Z,48.05
2022-11-08T04:06:52.396Z,48.67
2022-11-08T04:09:21.676Z,55.13
2022-11-08T04:12:09.029Z,52.72
2022-11-08T04:14:54.658Z,60.75
2022-11-08T04:17:41.357Z,66.32
2022-11-08T04:20:28.286Z,63.65
2022-11-08T04:22:55.025Z,62.45
2022-11-08T04:25:35.124Z,73.38
2022-11-08T04:28:02.272Z,71.00
2022-11-08T04:30:29.009Z,82.53
2022-11-08T04:32:58.089Z,88.15
2022-11-08T04:35:24.903Z,85.25
2022-11-08T04:37:51.629Z,88.65
2022-11-08T04:40:18.471Z,72.70
2022-11-08T04:42:47.683Z,59.40
2022-11-08T04:45:14.528Z,59.95
2022-11-08T04:47:45.725Z,56.60
2022-11-08T04:50:18.114Z,54.05
2022-11-08T04:52:54.799Z,50.80
2022-11-08T04:55:22.714Z,50.03
2022-11-08T04:57:56.989Z,48.15
2022-11-08T05:00:23.707Z,48.03
2022-11-08T05:02:53.897Z,44.28
2022-11-08T05:05:23.888Z,50.72
2022-11-08T05:07:54.467Z,49.33
2022-11-08T05:12:56.307Z,44.13
2022-11-08T05:15:24.525Z,47.35
2022-11-08T05:17:51.314Z,45.53
2022-11-08T05:20:36.670Z,47.90
2022-11-08T05:23:22.119Z,48.78
2022-11-08T05:25:48.932Z,47.00
2022-11-08T05:28:16.194Z,46.80
2022-11-08T05:30:43.191Z,47.88
2022-11-08T05:33:10.191Z,51.95
2022-11-08T05:35:36.995Z,50.10
2022-11-08T05:38:03.744Z,51.45
2022-11-08T05:40:33.323Z,46.70
2022-11-08T05:43:00.386Z,46.05
2022-11-08T05:45:27.300Z,43.42
2022-11-08T05:47:56.203Z,46.22
2022-11-08T05:50:23.999Z,48.92
2022-11-08T05:52:53.862Z,47.95
2022-11-08T05:55:20.741Z,44.63
2022-11-08T05:57:49.854Z,42.80
2022-11-08T06:00:17.006Z,45.72
2022-11-08T06:02:46.089Z,45.03
2022-11-08T06:05:13.291Z,44.53
2022-11-08T06:07:42.140Z,50.80
2022-11-08T06:10:09.372Z,47.83
2022-11-08T06:12:38.558Z,49.75
2022-11-08T06:15:11.947Z,45.25
2022-11-08T06:17:42.157Z,44.85
2022-11-08T06:20:11.949Z,49.33
2022-11-08T06:22:38.779Z,52.00
2022-11-08T06:25:05.937Z,54.20
2022-11-08T06:27:32.785Z,50.95
2022-11-08T06:30:07.346Z,57.35
2022-11-08T06:32:34.284Z,54.72
2022-11-08T06:35:03.467Z,56.42
2022-11-08T06:37:31.623Z,54.83
2022-11-08T06:39:59.359Z,64.78
2022-11-08T06:42:26.735Z,58.10
2022-11-08T06:44:54.902Z,59.47
2022-11-08T06:47:26.971Z,65.93
2022-11-08T06:49:57.168Z,59.58
2022-11-08T06:52:23.906Z,57.33
2022-11-08T06:54:57.906Z,55.30
2022-11-08T06:57:24.872Z,60.03
2022-11-08T07:00:24.690Z,63.65
2022-11-08T07:02:39.555Z,62.28
2022-11-08T07:05:06.710Z,59.80
2022-11-08T07:07:39.906Z,53.63
2022-11-08T07:10:14.361Z,59.80
2022-11-08T07:12:41.290Z,54.22
2022-11-08T07:15:11.527Z,55.35
2022-11-08T07:17:50.874Z,49.80
2022-11-08T07:20:18.185Z,54.63
2022-11-08T07:22:45.411Z,49.88
2022-11-08T07:25:12.280Z,54.63
2022-11-08T07:27:39.048Z,52.70
2022-11-08T07:30:12.724Z,56.25
2022-11-08T07:32:42.044Z,55.38
2022-11-08T07:35:09.075Z,58.33
2022-11-08T07:37:43.797Z,57.42
2022-11-08T07:40:20.213Z,55.30
2022-11-08T07:43:10.465Z,54.88
2022-11-08T07:45:36.842Z,48.72
2022-11-08T07:48:11.114Z,51.95
2022-11-08T07:50:41.420Z,43.88
2022-11-08T07:53:11.054Z,44.50
2022-11-08T07:55:39.245Z,37.43
2022-11-08T07:58:07.506Z,42.13
2022-11-08T08:00:39.017Z,41.90
2022-11-08T08:03:07.843Z,45.35
2022-11-08T08:05:37.991Z,37.17
2022-11-08T08:08:05.620Z,39.70
2022-11-08T08:10:38.945Z,39.55
2022-11-08T08:13:06.534Z,39.30
2022-11-08T08:15:36.230Z,33.00
2022-11-08T08:18:04.756Z,37.75
2022-11-08T08:20:32.860Z,36.08
2022-11-08T08:23:00.734Z,37.28
2022-11-08T08:25:30.901Z,38.65
2022-11-08T08:28:06.312Z,36.97
2022-11-08T08:30:35.186Z,36.85
2022-11-08T08:33:27.938Z,39.47
2022-11-08T08:36:01.942Z,36.08
2022-11-08T08:38:30.359Z,38.63
2022-11-08T08:40:59.170Z,36.83
2022-11-08T08:43:27.683Z,39.05
2022-11-08T08:45:55.279Z,37.60
2022-11-08T08:48:29.721Z,42.28
2022-11-08T08:51:07.619Z,34.63
2022-11-08T08:53:36.610Z,35.22
2022-11-08T08:56:08.683Z,33.53
2022-11-08T08:58:35.670Z,51.80
2022-11-08T09:03:51.428Z,36.58
2022-11-08T09:06:18.343Z,33.70
2022-11-08T09:08:45.037Z,35.35
2022-11-08T09:11:11.997Z,29.60
2022-11-08T09:13:38.706Z,30.95
2022-11-08T09:16:07.902Z,31.95
2022-11-08T09:18:35.244Z,32.20
2022-11-08T09:21:04.382Z,34.97
2022-11-08T09:23:31.330Z,36.50
2022-11-08T09:26:03.966Z,36.30
2022-11-08T09:28:33.030Z,32.72
2022-11-08T09:31:09.328Z,37.75
2022-11-08T09:33:37.437Z,29.45
2022-11-08T09:36:05.728Z,41.38
2022-11-08T09:38:32.584Z,27.42
2022-11-08T09:41:28.086Z,30.70
2022-11-08T09:44:16.346Z,30.20
2022-11-08T09:47:07.193Z,28.48
2022-11-08T09:49:41.493Z,25.25
2022-11-08T09:52:16.534Z,31.88
2022-11-08T09:54:46.830Z,27.27
2022-11-08T09:57:27.491Z,34.22
2022-11-08T10:00:06.463Z,28.52
2022-11-08T10:02:34.746Z,25.08
2022-11-08T10:05:06.217Z,24.17
2022-11-08T10:07:49.636Z,25.10
2022-11-08T10:10:37.336Z,24.00
2022-11-08T10:13:19.087Z,24.88
2022-11-08T10:16:17.780Z,24.02
2022-11-08T10:19:06.402Z,20.90
2022-11-08T10:22:02.216Z,23.52
2022-11-08T10:24:39.669Z,22.33
2022-11-08T10:27:16.281Z,22.67
2022-11-08T10:29:47.202Z,24.23
2022-11-08T10:32:19.676Z,22.50
2022-11-08T10:35:06.770Z,19.88
2022-11-08T10:37:34.033Z,20.33
2022-11-08T10:40:35.855Z,20.42
2022-11-08T10:43:09.620Z,23.00
2022-11-08T10:45:37.000Z,20.48
2022-11-08T10:48:05.119Z,21.13
2022-11-08T10:50:42.611Z,20.25
2022-11-08T10:53:40.119Z,19.20
2022-11-08T10:56:07.053Z,18.33
2022-11-08T10:58:40.620Z,17.23
2022-11-08T11:01:20.420Z,20.02
2022-11-08T11:03:48.753Z,18.45
2022-11-08T11:06:29.997Z,17.27
2022-11-08T11:08:59.770Z,20.05
2022-11-08T11:11:32.580Z,18.33
2022-11-08T11:14:21.856Z,18.95
2022-11-08T11:16:50.566Z,17.08
2022-11-08T11:19:17.549Z,16.85
2022-11-08T11:21:45.048Z,16.30
2022-11-08T11:24:19.286Z,13.57
2022-11-08T11:27:00.589Z,12.82
2022-11-08T11:31:55.806Z,16.08
2022-11-08T11:34:36.833Z,12.93
2022-11-08T11:37:09.662Z,13.02
2022-11-08T11:39:49.675Z,10.93
2022-11-08T11:42:53.256Z,15.60
2022-11-08T11:45:33.494Z,15.70
2022-11-08T11:48:11.837Z,14.95
2022-11-08T11:50:41.616Z,13.07
2022-11-08T11:53:24.732Z,16.30
2022-11-08T11:56:10.060Z,16.27
2022-11-08T11:59:14.865Z,10.38
2022-11-08T12:01:54.558Z,15.80
2022-11-08T12:04:39.474Z,10.95
2022-11-08T12:07:24.985Z,12.05
2022-11-08T12:09:58.860Z,9.77
2022-11-08T12:12:48.059Z,13.68
2022-11-08T12:15:39.780Z,18.00
2022-11-08T12:18:41.419Z,10.18
2022-11-08T12:21:29.079Z,15.90
2022-11-08T12:24:14.314Z,11.73
2022-11-08T12:27:04.977Z,13.27
2022-11-08T12:29:48.947Z,14.65
2022-11-08T12:32:32.864Z,17.45
2022-11-08T12:35:17.587Z,14.93
2022-11-08T12:37:54.873Z,12.63
2022-11-08T12:40:30.736Z,13.18
2022-11-08T12:43:05.571Z,16.92
2022-11-08T12:45:56.195Z,17.95
2022-11-08T12:48:47.678Z,12.10
2022-11-08T12:51:37.151Z,13.75
2022-11-08T12:54:37.023Z,18.90
2022-11-08T12:57:10.469Z,14.75
2022-11-08T12:59:42.741Z,15.45
2022-11-08T13:02:35.772Z,13.65
2022-11-08T13:05:09.035Z,16.60
2022-11-08T13:08:02.849Z,15.13
2022-11-08T13:10:48.499Z,17.30
2022-11-08T13:13:27.889Z,14.85
2022-11-08T13:16:19.370Z,11.03
2022-11-08T13:19:01.435Z,17.60
2022-11-08T13:21:28.162Z,13.07
2022-11-08T13:24:06.666Z,13.00
2022-11-08T13:26:43.216Z,17.05
2022-11-08T13:29:16.095Z,16.20
2022-11-08T13:32:00.878Z,13.70
2022-11-08T13:34:49.286Z,10.80
2022-11-08T13:37:54.245Z,17.25
2022-11-08T13:40:36.277Z,12.85
2022-11-08T13:43:26.459Z,12.38
2022-11-08T13:45:54.137Z,17.33
2022-11-08T13:48:37.233Z,15.30
2022-11-08T13:51:26.298Z,13.07
2022-11-08T13:53:58.110Z,12.95
2022-11-08T13:56:42.308Z,18.15
2022-11-08T13:59:34.205Z,18.50
2022-11-08T14:02:04.454Z,22.58
2022-11-08T14:04:33.853Z,22.40
2022-11-08T14:07:25.410Z,19.27
2022-11-08T14:10:08.265Z,17.33
2022-11-08T14:13:06.347Z,15.57
2022-11-08T14:16:06.150Z,15.00
2022-11-08T14:18:35.000Z,21.85
2022-11-08T14:21:04.899Z,21.45
2022-11-08T14:23:40.562Z,18.63
2022-11-08T14:26:12.923Z,18.90
2022-11-08T14:28:45.606Z,14.77
2022-11-08T14:31:30.570Z,16.08
2022-11-08T14:33:58.911Z,15.63
2022-11-08T14:36:27.808Z,11.35
2022-11-08T14:39:15.598Z,21.05
2022-11-08T14:41:47.621Z,20.90
2022-11-08T14:44:16.883Z,20.88
2022-11-08T14:46:44.228Z,19.60
2022-11-08T14:49:18.188Z,20.48
2022-11-08T14:51:46.213Z,20.15
2022-11-08T14:54:25.075Z,19.10
2022-11-08T14:56:52.154Z,17.42
2022-11-08T14:59:19.071Z,20.08
2022-11-08T15:01:49.712Z,20.10
2022-11-08T15:04:20.597Z,19.52
2022-11-08T15:06:52.132Z,16.35
2022-11-08T15:09:29.570Z,16.33
2022-11-08T15:12:02.704Z,22.27
2022-11-08T15:14:32.923Z,20.63
2022-11-08T15:17:03.091Z,15.73
2022-11-08T15:19:41.316Z,28.02
2022-11-08T15:22:24.765Z,22.67
2022-11-08T15:25:22.068Z,21.17
2022-11-08T15:27:54.901Z,19.17
2022-11-08T15:30:30.922Z,22.42
2022-11-08T15:32:58.952Z,21.50
2022-11-08T15:35:34.717Z,22.00
2022-11-08T15:38:26.419Z,21.98
2022-11-08T15:41:03.735Z,25.60
2022-11-08T15:43:33.533Z,20.08
2022-11-08T15:46:02.039Z,23.30
2022-11-08T15:48:29.178Z,21.58
2022-11-08T15:50:59.471Z,20.98
2022-11-08T15:53:27.360Z,29.23
2022-11-08T15:55:58.683Z,23.98
2022-11-08T15:58:32.080Z,32.95
2022-11-08T16:01:01.135Z,32.58
2022-11-08T16:03:28.289Z,35.58
2022-11-08T16:05:55.018Z,39.47
2022-11-08T16:08:25.033Z,31.67
2022-11-08T16:10:54.204Z,34.08
2022-11-08T16:13:24.043Z,33.35
2022-11-08T16:15:50.931Z,44.17
2022-11-08T16:18:22.488Z,35.20
2022-11-08T16:20:49.437Z,39.67
2022-11-08T16:23:16.274Z,39.17
2022-11-08T16:25:50.388Z,45.03
2022-11-08T16:28:20.921Z,50.90
2022-11-08T16:30:48.066Z,54.47
2022-11-08T16:33:21.035Z,51.17
2022-11-08T16:35:48.666Z,58.38
2022-11-08T16:38:16.658Z,65.07
2022-11-08T16:40:43.856Z,67.88
2022-11-08T16:43:11.798Z,67.70
2022-11-08T16:46:03.709Z,73.90
2022-11-08T16:48:27.280Z,75.32
2022-11-08T16:51:06.184Z,69.78
2022-11-08T16:53:34.806Z,65.47
2022-11-08T16:56:01.585Z,65.80
2022-11-08T16:58:28.396Z,65.55
2022-11-08T17:00:56.631Z,61.65
2022-11-08T17:03:25.430Z,56.05
2022-11-08T17:05:53.966Z,58.65
2022-11-08T17:08:22.044Z,53.55
2022-11-08T17:10:49.441Z,53.95
2022-11-08T17:13:18.177Z,50.83
2022-11-08T17:15:45.749Z,51.63
2022-11-08T17:18:14.903Z,52.42
2022-11-08T17:20:41.896Z,55.80
2022-11-08T17:23:12.352Z,60.13
2022-11-08T17:25:43.237Z,58.60
2022-11-08T17:28:12.236Z,52.00
2022-11-08T17:30:45.822Z,61.92
2022-11-08T17:33:13.755Z,44.05
2022-11-08T17:35:45.349Z,52.28
2022-11-08T17:38:14.917Z,55.22
2022-11-08T17:40:42.366Z,46.50
2022-11-08T17:43:13.764Z,54.42
2022-11-08T17:45:40.710Z,56.72
2022-11-08T17:48:07.796Z,49.40
2022-11-08T17:50:34.670Z,57.15
2022-11-08T17:53:01.436Z,52.78
2022-11-08T17:55:29.407Z,47.47
2022-11-08T17:57:56.268Z,47.08
2022-11-08T18:00:25.992Z,51.72
2022-11-08T18:02:52.948Z,48.20
2022-11-08T18:05:19.797Z,50.80
2022-11-08T18:07:46.608Z,56.10
2022-11-08T18:10:13.510Z,52.40
2022-11-08T18:12:40.822Z,61.22
2022-11-08T18:15:09.057Z,71.13
2022-11-08T18:17:35.789Z,80.00
2022-11-08T18:20:02.869Z,94.55
2022-11-08T18:22:29.586Z,90.78
2022-11-08T18:24:56.273Z,138.27
2022-11-08T18:27:23.259Z,117.72
2022-11-08T18:29:51.889Z,102.30
2022-11-08T18:32:18.645Z,108.07
2022-11-08T18:34:45.788Z,122.18
2022-11-08T18:37:12.491Z,138.80
2022-11-08T18:39:39.207Z,136.73
2022-11-08T18:42:11.514Z,126.05
2022-11-08T18:44:40.105Z,130.02
2022-11-08T18:47:06.898Z,113.53
2022-11-08T18:49:33.853Z,121.05
2022-11-08T18:52:01.786Z,114.90
2022-11-08T18:54:28.837Z,123.95
2022-11-08T18:56:55.671Z,121.80
2022-11-08T18:59:22.384Z,129.25
2022-11-08T19:01:49.145Z,130.18
2022-11-08T19:04:16.424Z,120.90
2022-11-08T19:06:43.180Z,117.00
2022-11-08T19:09:09.978Z,115.32
2022-11-08T19:11:38.163Z,118.13
2022-11-08T19:14:04.845Z,116.25
2022-11-08T19:16:32.487Z,107.25
2022-11-08T19:19:00.213Z,105.40
2022-11-08T19:21:28.544Z,103.90
2022-11-08T19:23:59.237Z,107.95
2022-11-08T19:26:27.727Z,104.70
2022-11-08T19:28:55.413Z,92.50
2022-11-08T19:31:24.481Z,88.53
2022-11-08T19:33:54.756Z,87.57
2022-11-08T19:36:26.877Z,84.13
2022-11-08T19:38:58.204Z,79.63
2022-11-08T19:41:28.461Z,76.70
2022-11-08T19:43:55.364Z,77.68
2022-11-08T19:46:32.632Z,78.53
2022-11-08T19:49:02.024Z,70.40
2022-11-08T19:51:31.076Z,72.95
2022-11-08T19:53:59.662Z,75.43
2022-11-08T19:56:50.162Z,76.50
2022-11-08T19:59:14.256Z,67.70
2022-11-08T20:01:41.476Z,65.47
2022-11-08T20:04:10.829Z,58.58
2022-11-08T20:06:40.715Z,55.40
2022-11-08T20:09:09.500Z,56.10
2022-11-08T20:11:38.389Z,57.70
2022-11-08T20:14:08.318Z,53.03
2022-11-08T20:16:40.080Z,53.63
2022-11-08T20:19:10.542Z,63.58
2022-11-08T20:24:09.597Z,55.88
2022-11-08T20:26:38.563Z,60.40
2022-11-08T20:29:07.495Z,66.93
2022-11-08T20:31:35.014Z,72.05
2022-11-08T20:34:05.624Z,77.00
2022-11-08T20:39:06.868Z,73.78
2022-11-08T20:41:35.640Z,87.97
2022-11-08T20:44:02.638Z,90.13
2022-11-08T20:46:29.792Z,76.80
2022-11-08T20:49:00.589Z,88.75
2022-11-08T20:51:29.958Z,80.55
2022-11-08T20:53:57.840Z,78.15
2022-11-08T20:56:25.205Z,79.45
2022-11-08T20:58:53.008Z,88.07
2022-11-08T21:01:22.495Z,74.30
2022-11-08T21:03:49.759Z,84.37
2022-11-08T21:06:19.837Z,83.47
2022-11-08T21:09:12.687Z,88.43
2022-11-08T21:11:35.388Z,78.60
2022-11-08T21:14:03.756Z,82.97
2022-11-08T21:16:38.137Z,83.70
2022-11-08T21:19:14.042Z,101.22
2022-11-08T21:21:40.785Z,89.18
2022-11-08T21:24:08.038Z,96.50
2022-11-08T21:26:36.771Z,98.18
2022-11-08T21:29:05.034Z,97.85
2022-11-08T21:31:32.212Z,98.18
2022-11-08T21:33:59.843Z,87.88
2022-11-08T21:36:27.256Z,91.47
2022-11-08T21:38:54.408Z,84.72
2022-11-08T21:41:21.452Z,78.00
2022-11-08T21:43:48.293Z,89.65
2022-11-08T21:46:21.296Z,88.20
2022-11-08T21:48:53.188Z,87.30
2022-11-08T21:51:19.900Z,98.22
2022-11-08T21:53:54.028Z,103.43
2022-11-08T21:56:23.670Z,98.25
2022-11-08T21:58:50.691Z,101.05
2022-11-08T22:01:19.817Z,97.03
2022-11-08T22:03:47.080Z,95.95
2022-11-08T22:06:14.208Z,88.28
2022-11-08T22:08:43.161Z,89.45
2022-11-08T22:11:10.167Z,90.88
2022-11-08T22:13:37.187Z,85.22
2022-11-08T22:16:04.116Z,80.40
2022-11-08T22:21:38.365Z,80.05
2022-11-08T22:24:18.473Z,81.97
2022-11-08T22:26:45.801Z,87.85
2022-11-08T22:29:13.064Z,88.78
2022-11-08T22:31:40.012Z,87.07
2022-11-08T22:34:10.350Z,91.78
2022-11-08T22:36:44.798Z,80.93
2022-11-08T22:39:16.157Z,83.65
2022-11-08T22:41:44.095Z,72.80
2022-11-08T22:44:12.579Z,79.88
2022-11-08T22:46:41.007Z,81.00
2022-11-08T22:49:09.950Z,69.30
2022-11-08T22:51:36.922Z,70.68
2022-11-08T22:54:05.393Z,68.88
2022-11-08T22:56:32.917Z,70.53
2022-11-08T22:58:59.843Z,69.88
2022-11-08T23:01:28.504Z,66.85
2022-11-08T23:03:55.209Z,62.72
2022-11-08T23:06:21.952Z,70.82
2022-11-08T23:08:48.895Z,66.88
2022-11-08T23:11:34.154Z,67.63
2022-11-08T23:14:20.036Z,62.17
2022-11-08T23:16:47.154Z,64.88
2022-11-08T23:19:36.206Z,62.13
2022-11-08T23:22:25.303Z,61.33
2022-11-08T23:24:52.151Z,64.80
2022-11-08T23:27:38.283Z,65.90
2022-11-08T23:30:25.253Z,56.92
2022-11-08T23:32:52.012Z,62.90
2022-11-08T23:35:20.509Z,57.83
2022-11-08T23:37:47.599Z,61.88
2022-11-08T23:40:35.225Z,62.95
2022-11-08T23:43:29.989Z,62.95
2022-11-08T23:45:57.748Z,61.00
2022-11-08T23:48:24.735Z,57.83
2022-11-08T23:50:56.496Z,60.72
2022-11-08T23:53:25.294Z,59.83
2022-11-08T23:55:53.806Z,57.20
2022-11-08T23:58:21.289Z,56.03
